createdAt,value
2019-05-14T00:03:57.163Z,97358.66
2019-05-14T00:09:02.154Z,97358.50
2019-05-14T00:14:07.462Z,97351.98
2019-05-14T00:19:12.103Z,97339.91
2019-05-14T00:24:16.846Z,97328.91
2019-05-14T00:29:22.069Z,97326.06
2019-05-14T00:34:26.844Z,97324.17
2019-05-14T00:39:32.012Z,97325.89
2019-05-14T00:44:50.815Z,97307.56
2019-05-14T00:49:43.128Z,97313.69
2019-05-14T00:54:47.770Z,97314.41
2019-05-14T00:59:52.512Z,97316.53
2019-05-14T01:04:57.064Z,97313.05
2019-05-14T01:10:01.799Z,97322.45
2019-05-14T01:15:10.739Z,97318.59
2019-05-14T01:20:14.149Z,97322.69
2019-05-14T01:25:18.890Z,97330.73
2019-05-14T01:30:23.484Z,97331.11
2019-05-14T01:35:28.059Z,97340.97
2019-05-14T01:40:32.634Z,97337.37
2019-05-14T01:45:37.355Z,97340.56
2019-05-14T01:50:41.895Z,97329.42
2019-05-14T01:55:46.735Z,97319.84
2019-05-14T02:00:52.340Z,97321.05
2019-05-14T02:05:57.349Z,97331.90
2019-05-14T02:11:02.102Z,97322.12
2019-05-14T02:16:06.851Z,97319.25
2019-05-14T02:21:11.820Z,97308.94
2019-05-14T02:26:16.636Z,97313.64
2019-05-14T02:31:21.380Z,97302.20
2019-05-14T02:36:26.007Z,97309.16
2019-05-14T02:41:30.649Z,97303.30
2019-05-14T02:46:35.297Z,97309.02
2019-05-14T02:51:39.932Z,97310.61
2019-05-14T02:56:49.370Z,97324.39
2019-05-14T03:01:52.830Z,97324.25
2019-05-14T03:06:59.216Z,97327.92
2019-05-14T03:12:03.721Z,97328.09
2019-05-14T03:17:10.511Z,97330.41
2019-05-14T03:22:14.958Z,97336.41
2019-05-14T03:27:19.907Z,97337.49
2019-05-14T03:32:24.851Z,97322.19
2019-05-14T03:37:31.065Z,97330.20
2019-05-14T03:42:36.077Z,97324.55
2019-05-14T03:47:40.732Z,97298.88
2019-05-14T03:52:45.359Z,97321.64
2019-05-14T03:57:50.299Z,97335.78
2019-05-14T04:02:55.164Z,97335.34
2019-05-14T04:08:00.255Z,97338.03
2019-05-14T04:13:05.051Z,97338.20
2019-05-14T04:18:10.934Z,97338.28
2019-05-14T04:23:19.848Z,97344.88
2019-05-14T04:28:24.519Z,97341.98
2019-05-14T04:33:30.234Z,97354.80
2019-05-14T04:38:35.524Z,97339.91
2019-05-14T04:43:40.495Z,97333.09
2019-05-14T04:48:50.034Z,97342.15
2019-05-14T04:53:54.097Z,97347.27
2019-05-14T04:58:59.787Z,97340.08
2019-05-14T05:04:04.772Z,97330.23
2019-05-14T05:09:09.782Z,97324.05
2019-05-14T05:14:14.571Z,97324.59
2019-05-14T05:19:19.755Z,97338.73
2019-05-14T05:24:24.564Z,97343.64
2019-05-14T05:29:29.311Z,97327.90
2019-05-14T05:34:34.055Z,97325.63
2019-05-14T05:39:38.866Z,97314.48
2019-05-14T05:44:43.643Z,97305.93
2019-05-14T05:49:48.802Z,97319.68
2019-05-14T05:54:53.765Z,97309.45
2019-05-14T05:59:58.833Z,97316.69
2019-05-14T06:05:04.463Z,97315.09
2019-05-14T06:10:09.308Z,97315.88
2019-05-14T06:15:14.393Z,97318.25
2019-05-14T06:20:19.539Z,97311.39
2019-05-14T06:25:24.423Z,97316.38
2019-05-14T06:30:32.485Z,97295.13
2019-05-14T06:35:39.379Z,97289.91
2019-05-14T06:40:43.538Z,97290.95
2019-05-14T06:45:49.568Z,97279.92
2019-05-14T06:50:54.528Z,97265.45
2019-05-14T06:55:59.162Z,97267.57
2019-05-14T07:01:03.914Z,97260.75
2019-05-14T07:06:08.983Z,97258.86
2019-05-14T07:11:14.530Z,97249.81
2019-05-14T07:16:20.001Z,97251.13
2019-05-14T07:21:25.140Z,97250.20
2019-05-14T07:26:31.009Z,97255.45
2019-05-14T07:31:38.294Z,97261.75
2019-05-14T07:36:41.927Z,97248.22
2019-05-14T07:41:48.338Z,97249.30
2019-05-14T07:46:52.953Z,97268.77
2019-05-14T07:51:58.748Z,97268.80
2019-05-14T07:57:03.683Z,97271.39
2019-05-14T08:02:09.394Z,97269.33
2019-05-14T08:07:14.386Z,97272.55
2019-05-14T08:12:19.350Z,97282.28
2019-05-14T08:17:24.180Z,97277.00
2019-05-14T08:22:29.199Z,97267.23
2019-05-14T08:27:34.077Z,97253.38
2019-05-14T08:32:39.154Z,97246.14
2019-05-14T08:37:43.984Z,97255.22
2019-05-14T08:42:49.029Z,97256.65
2019-05-14T08:47:54.694Z,97253.31
2019-05-14T08:52:59.437Z,97245.31
2019-05-14T08:58:04.154Z,97235.67
2019-05-14T09:03:08.826Z,97224.77
2019-05-14T09:08:13.462Z,97220.53
2019-05-14T09:13:18.633Z,97215.06
2019-05-14T09:18:23.328Z,97204.59
2019-05-14T09:23:28.613Z,97192.27
2019-05-14T09:28:33.791Z,97183.34
2019-05-14T09:33:39.135Z,97187.90
2019-05-14T09:38:45.564Z,97183.94
2019-05-14T09:43:50.358Z,97178.44
2019-05-14T09:48:55.002Z,97170.30
2019-05-14T09:53:59.754Z,97159.91
2019-05-14T09:59:05.134Z,97157.69
2019-05-14T10:04:10.391Z,97159.98
2019-05-14T10:09:15.468Z,97157.16
2019-05-14T10:14:21.997Z,97148.57
2019-05-14T10:19:29.316Z,97147.12
2019-05-14T10:24:33.227Z,97137.05
2019-05-14T10:29:39.331Z,97128.95
2019-05-14T10:34:44.761Z,97121.93
2019-05-14T10:39:50.454Z,97126.39
2019-05-14T10:44:55.429Z,97123.34
2019-05-14T10:50:02.174Z,97119.72
2019-05-14T10:55:08.060Z,97117.30
2019-05-14T11:00:13.094Z,97118.72
2019-05-14T11:05:18.837Z,97119.45
2019-05-14T11:10:23.703Z,97114.81
2019-05-14T11:15:28.589Z,97115.89
2019-05-14T11:20:33.312Z,97118.30
2019-05-14T11:25:39.570Z,97107.69
2019-05-14T11:30:44.315Z,97120.69
2019-05-14T11:35:49.063Z,97103.22
2019-05-14T11:40:54.562Z,97093.11
2019-05-14T11:45:59.535Z,97091.04
2019-05-14T11:51:04.233Z,97081.45
2019-05-14T11:56:10.491Z,97084.50
2019-05-14T12:01:15.442Z,97080.55
2019-05-14T12:06:20.185Z,97079.09
2019-05-14T12:11:28.952Z,97072.78
2019-05-14T12:16:33.262Z,97067.94
2019-05-14T12:21:39.756Z,97056.87
2019-05-14T12:26:44.278Z,97044.37
2019-05-14T12:31:50.697Z,97042.95
2019-05-14T12:36:55.408Z,97033.88
2019-05-14T12:42:00.694Z,97020.82
2019-05-14T12:47:05.244Z,97019.02
2019-05-14T12:52:24.593Z,97018.44
2019-05-14T12:57:18.782Z,97011.51
2019-05-14T13:02:22.714Z,96998.80
2019-05-14T13:07:27.345Z,96999.16
2019-05-14T13:12:32.096Z,96997.75
2019-05-14T13:17:38.897Z,96991.80
2019-05-14T13:22:46.236Z,97004.90
2019-05-14T13:27:50.343Z,96995.96
2019-05-14T13:32:55.067Z,96984.54
2019-05-14T13:38:00.834Z,96989.66
2019-05-14T13:43:05.468Z,96994.03
2019-05-14T13:48:10.223Z,96981.77
2019-05-14T13:53:14.868Z,96982.09
2019-05-14T13:58:20.850Z,96975.08
2019-05-14T14:03:28.936Z,96972.06
2019-05-14T14:08:32.481Z,96964.07
2019-05-14T14:13:39.096Z,96963.17
2019-05-14T14:18:43.395Z,96956.14
2019-05-14T14:23:49.480Z,96954.09
2019-05-14T14:28:54.385Z,96943.20
2019-05-14T14:34:01.151Z,96939.94
2019-05-14T14:39:09.478Z,96932.56
2019-05-14T14:44:13.564Z,96942.78
2019-05-14T14:49:20.227Z,96943.36
2019-05-14T14:54:28.665Z,96936.60
2019-05-14T14:59:32.917Z,96932.50
2019-05-14T15:04:39.553Z,96927.44
2019-05-14T15:09:44.142Z,96920.20
2019-05-14T15:14:49.912Z,96917.55
2019-05-14T15:19:54.760Z,96905.54
2019-05-14T15:24:59.498Z,96903.36
2019-05-14T15:30:08.078Z,96899.70
2019-05-14T15:35:13.719Z,96890.16
2019-05-14T15:40:22.480Z,96889.33
2019-05-14T15:45:28.772Z,96892.09
2019-05-14T15:50:34.995Z,96895.78
2019-05-14T15:55:40.762Z,96891.48
2019-05-14T16:00:45.577Z,96889.30
2019-05-14T16:05:50.505Z,96883.66
2019-05-14T16:11:00.130Z,96888.19
2019-05-14T16:16:03.325Z,96888.88
2019-05-14T16:21:10.494Z,96889.69
2019-05-14T16:26:15.166Z,96884.81
2019-05-14T16:31:19.911Z,96884.25
2019-05-14T16:36:24.764Z,96888.47
2019-05-14T16:41:29.511Z,96898.67
2019-05-14T16:46:38.503Z,96894.07
2019-05-14T16:51:42.978Z,96888.33
2019-05-14T16:56:48.341Z,96905.98
2019-05-14T17:01:54.460Z,96910.97
2019-05-14T17:07:02.321Z,96912.69
2019-05-14T17:12:08.505Z,96920.61
2019-05-14T17:17:13.476Z,96929.89
2019-05-14T17:22:28.602Z,96934.38
2019-05-14T17:27:28.381Z,96935.88
2019-05-14T17:32:32.606Z,96929.42
2019-05-14T17:37:39.404Z,96928.50
2019-05-14T17:42:43.733Z,96930.80
2019-05-14T17:47:49.075Z,96927.53
2019-05-14T17:52:56.395Z,96940.05
2019-05-14T17:58:01.054Z,96920.06
2019-05-14T18:03:05.877Z,96923.77
2019-05-14T18:08:11.006Z,96927.40
2019-05-14T18:13:18.030Z,96930.22
2019-05-14T18:18:24.756Z,96924.77
2019-05-14T18:23:29.978Z,96926.28
2019-05-14T18:28:34.716Z,96922.76
2019-05-14T18:33:40.145Z,96926.97
2019-05-14T18:38:45.029Z,96925.52
2019-05-14T18:43:49.653Z,96923.52
2019-05-14T18:48:54.824Z,96915.67
2019-05-14T18:53:59.837Z,96905.11
2019-05-14T18:59:04.566Z,96924.66
2019-05-14T19:04:09.392Z,96928.13
2019-05-14T19:09:14.231Z,96928.37
2019-05-14T19:14:19.193Z,96942.55
2019-05-14T19:19:24.259Z,96933.91
2019-05-14T19:24:29.160Z,96932.66
2019-05-14T19:29:34.016Z,96919.31
2019-05-14T19:34:38.741Z,96925.00
2019-05-14T19:39:44.020Z,96923.09
2019-05-14T19:44:48.871Z,96936.41
2019-05-14T19:49:54.519Z,96928.09
2019-05-14T19:54:59.182Z,96925.98
2019-05-14T20:00:05.555Z,96939.73
2019-05-14T20:05:10.536Z,96933.19
2019-05-14T20:10:16.083Z,96928.44
2019-05-14T20:15:21.926Z,96929.08
2019-05-14T20:20:28.836Z,96930.13
2019-05-14T20:25:35.422Z,96934.80
2019-05-14T20:30:40.938Z,96937.91
2019-05-14T20:35:47.907Z,96943.36
2019-05-14T20:40:52.594Z,96944.59
2019-05-14T20:45:59.408Z,96937.94
2019-05-14T20:51:03.614Z,96937.48
2019-05-14T20:56:08.521Z,96952.23
2019-05-14T21:01:14.228Z,96948.16
2019-05-14T21:06:20.589Z,96942.35
2019-05-14T21:11:25.253Z,96941.48
2019-05-14T21:16:29.995Z,96937.47
2019-05-14T21:21:34.738Z,96945.14
2019-05-14T21:26:40.189Z,96951.46
2019-05-14T21:31:45.148Z,96954.20
2019-05-14T21:36:50.775Z,96959.44
2019-05-14T21:41:55.558Z,96954.70
2019-05-14T21:47:01.214Z,96981.90
2019-05-14T21:52:05.967Z,96991.55
2019-05-14T21:57:11.836Z,96988.27
2019-05-14T22:02:24.321Z,96980.19
2019-05-14T22:07:23.053Z,96991.72
2019-05-14T22:12:28.262Z,96983.25
2019-05-14T22:17:33.165Z,96983.58
2019-05-14T22:22:39.547Z,96977.14
2019-05-14T22:27:44.608Z,96984.56
2019-05-14T22:32:50.372Z,96992.30
2019-05-14T22:37:55.107Z,96998.66
2019-05-14T22:43:00.398Z,96998.80
2019-05-14T22:48:05.315Z,96991.53
2019-05-14T22:53:09.950Z,96990.10
2019-05-14T22:58:25.306Z,96991.85
2019-05-14T23:03:21.230Z,96998.59
2019-05-14T23:08:26.117Z,97011.38
2019-05-14T23:13:31.896Z,97020.94
2019-05-14T23:18:37.953Z,97032.48
2019-05-14T23:23:42.811Z,97046.59
2019-05-14T23:28:49.182Z,97037.02
2019-05-14T23:33:53.732Z,97037.36
2019-05-14T23:38:59.131Z,97039.60
2019-05-14T23:44:04.042Z,97036.92
2019-05-14T23:49:09.028Z,97044.95
2019-05-14T23:54:14.984Z,97046.90
2019-05-14T23:59:19.591Z,97043.81
